sensor_id;sensor_type;location;lat;lon;timestamp;temperature;humidity
19610;DHT22;9952;47.122;-1.638;2022-12-08T00:02:07;1.80;99.90
19610;DHT22;9952;47.122;-1.638;2022-12-08T00:06:56;1.80;99.90
19610;DHT22;9952;47.122;-1.638;2022-12-08T00:12:21;1.80;99.90
19610;DHT22;9952;47.122;-1.638;2022-12-08T00:17:14;1.70;99.90
19610;DHT22;9952;47.122;-1.638;2022-12-08T00:22:08;1.70;99.90
19610;DHT22;9952;47.122;-1.638;2022-12-08T00:26:57;1.70;99.90
19610;DHT22;9952;47.122;-1.638;2022-12-08T00:31:46;1.60;99.90
19610;DHT22;9952;47.122;-1.638;2022-12-08T00:36:30;1.50;99.90
19610;DHT22;9952;47.122;-1.638;2022-12-08T00:41:16;1.50;99.90
19610;DHT22;9952;47.122;-1.638;2022-12-08T00:46:08;1.40;99.90
19610;DHT22;9952;47.122;-1.638;2022-12-08T00:51:12;1.40;99.90
19610;DHT22;9952;47.122;-1.638;2022-12-08T00:56:07;1.40;99.90
19610;DHT22;9952;47.122;-1.638;2022-12-08T01:01:12;1.40;99.90
19610;DHT22;9952;47.122;-1.638;2022-12-08T01:28:58;1.30;99.90
19610;DHT22;9952;47.122;-1.638;2022-12-08T01:34:28;1.20;99.90
19610;DHT22;9952;47.122;-1.638;2022-12-08T01:39:35;1.20;99.90
19610;DHT22;9952;47.122;-1.638;2022-12-08T01:49:35;1.30;99.90
19610;DHT22;9952;47.122;-1.638;2022-12-08T01:54:34;1.40;99.90
19610;DHT22;9952;47.122;-1.638;2022-12-08T01:59:40;1.30;99.90
19610;DHT22;9952;47.122;-1.638;2022-12-08T02:10:23;1.20;99.90
19610;DHT22;9952;47.122;-1.638;2022-12-08T02:21:13;1.00;99.90
19610;DHT22;9952;47.122;-1.638;2022-12-08T02:31:41;1.00;99.90
19610;DHT22;9952;47.122;-1.638;2022-12-08T03:16:52;0.60;99.90
19610;DHT22;9952;47.122;-1.638;2022-12-08T03:21:38;0.60;99.90
19610;DHT22;9952;47.122;-1.638;2022-12-08T03:26:48;0.60;99.90
19610;DHT22;9952;47.122;-1.638;2022-12-08T03:31:38;0.70;99.90
19610;DHT22;9952;47.122;-1.638;2022-12-08T03:36:25;0.60;99.90
19610;DHT22;9952;47.122;-1.638;2022-12-08T03:41:10;0.60;99.90
19610;DHT22;9952;47.122;-1.638;2022-12-08T03:46:02;0.60;99.90
19610;DHT22;9952;47.122;-1.638;2022-12-08T03:50:43;0.60;99.90
19610;DHT22;9952;47.122;-1.638;2022-12-08T04:01:40;0.50;99.90
19610;DHT22;9952;47.122;-1.638;2022-12-08T04:12:29;0.70;99.90
19610;DHT22;9952;47.122;-1.638;2022-12-08T04:17:31;0.70;99.90
19610;DHT22;9952;47.122;-1.638;2022-12-08T04:34:32;0.80;99.90
19610;DHT22;9952;47.122;-1.638;2022-12-08T04:39:21;0.80;99.90
19610;DHT22;9952;47.122;-1.638;2022-12-08T04:50:04;0.90;99.90
19610;DHT22;9952;47.122;-1.638;2022-12-08T04:55:14;0.90;99.90
19610;DHT22;9952;47.122;-1.638;2022-12-08T05:00:40;0.90;99.90
19610;DHT22;9952;47.122;-1.638;2022-12-08T05:17:24;0.90;99.90
19610;DHT22;9952;47.122;-1.638;2022-12-08T05:39:18;1.20;99.90
19610;DHT22;9952;47.122;-1.638;2022-12-08T05:44:49;1.20;99.90
19610;DHT22;9952;47.122;-1.638;2022-12-08T05:49:59;1.20;99.90
19610;DHT22;9952;47.122;-1.638;2022-12-08T05:54:53;1.30;99.90
19610;DHT22;9952;47.122;-1.638;2022-12-08T06:23:29;1.50;99.90
19610;DHT22;9952;47.122;-1.638;2022-12-08T06:28:39;1.50;99.90
19610;DHT22;9952;47.122;-1.638;2022-12-08T06:33:25;1.50;99.90
19610;DHT22;9952;47.122;-1.638;2022-12-08T06:38:18;1.50;99.90
19610;DHT22;9952;47.122;-1.638;2022-12-08T06:43:09;1.60;99.90
19610;DHT22;9952;47.122;-1.638;2022-12-08T06:47:50;1.60;99.90
19610;DHT22;9952;47.122;-1.638;2022-12-08T06:52:34;1.70;99.90
19610;DHT22;9952;47.122;-1.638;2022-12-08T06:57:45;1.70;99.90
19610;DHT22;9952;47.122;-1.638;2022-12-08T07:02:41;1.70;99.90
19610;DHT22;9952;47.122;-1.638;2022-12-08T07:08:09;1.70;99.90
19610;DHT22;9952;47.122;-1.638;2022-12-08T07:13:31;1.60;99.90
19610;DHT22;9952;47.122;-1.638;2022-12-08T07:18:39;1.60;99.90
19610;DHT22;9952;47.122;-1.638;2022-12-08T07:34:30;1.70;99.90
19610;DHT22;9952;47.122;-1.638;2022-12-08T07:39:57;1.90;99.90
19610;DHT22;9952;47.122;-1.638;2022-12-08T07:45:37;2.00;99.90
19610;DHT22;9952;47.122;-1.638;2022-12-08T07:56:08;1.80;99.90
19610;DHT22;9952;47.122;-1.638;2022-12-08T08:24:36;1.90;99.90
19610;DHT22;9952;47.122;-1.638;2022-12-08T08:29:50;1.90;99.90
19610;DHT22;9952;47.122;-1.638;2022-12-08T08:34:42;2.00;99.90
19610;DHT22;9952;47.122;-1.638;2022-12-08T08:39:28;2.20;99.90
19610;DHT22;9952;47.122;-1.638;2022-12-08T08:44:12;2.10;99.90
19610;DHT22;9952;47.122;-1.638;2022-12-08T08:48:54;2.10;99.90
19610;DHT22;9952;47.122;-1.638;2022-12-08T08:53:40;2.20;99.90
19610;DHT22;9952;47.122;-1.638;2022-12-08T08:58:24;2.20;99.90
19610;DHT22;9952;47.122;-1.638;2022-12-08T09:03:05;2.20;99.90
19610;DHT22;9952;47.122;-1.638;2022-12-08T09:07:49;2.20;99.90
19610;DHT22;9952;47.122;-1.638;2022-12-08T09:18:03;2.20;99.90
19610;DHT22;9952;47.122;-1.638;2022-12-08T09:22:53;2.40;99.90
19610;DHT22;9952;47.122;-1.638;2022-12-08T09:27:37;2.40;99.90
19610;DHT22;9952;47.122;-1.638;2022-12-08T09:32:17;2.40;99.90
19610;DHT22;9952;47.122;-1.638;2022-12-08T09:36:58;2.40;99.90
19610;DHT22;9952;47.122;-1.638;2022-12-08T09:42:09;2.50;99.90
19610;DHT22;9952;47.122;-1.638;2022-12-08T09:46:51;2.60;99.90
19610;DHT22;9952;47.122;-1.638;2022-12-08T09:51:37;2.70;99.90
19610;DHT22;9952;47.122;-1.638;2022-12-08T09:56:27;2.80;99.90
19610;DHT22;9952;47.122;-1.638;2022-12-08T10:01:11;2.80;99.90
19610;DHT22;9952;47.122;-1.638;2022-12-08T10:10:59;2.90;99.90
19610;DHT22;9952;47.122;-1.638;2022-12-08T10:20:45;3.00;99.90
19610;DHT22;9952;47.122;-1.638;2022-12-08T10:25:45;3.00;99.90
19610;DHT22;9952;47.122;-1.638;2022-12-08T10:30:30;3.10;99.90
19610;DHT22;9952;47.122;-1.638;2022-12-08T10:35:13;3.20;99.90
19610;DHT22;9952;47.122;-1.638;2022-12-08T10:40:15;3.20;99.90
19610;DHT22;9952;47.122;-1.638;2022-12-08T10:45:25;3.30;99.90
19610;DHT22;9952;47.122;-1.638;2022-12-08T10:50:20;3.30;99.90
19610;DHT22;9952;47.122;-1.638;2022-12-08T10:55:03;3.30;99.90
19610;DHT22;9952;47.122;-1.638;2022-12-08T10:59:44;3.40;99.90
19610;DHT22;9952;47.122;-1.638;2022-12-08T11:04:36;3.40;99.90
19610;DHT22;9952;47.122;-1.638;2022-12-08T11:09:43;3.50;99.90
19610;DHT22;9952;47.122;-1.638;2022-12-08T11:24:41;3.60;99.90
19610;DHT22;9952;47.122;-1.638;2022-12-08T11:29:22;3.70;99.90
19610;DHT22;9952;47.122;-1.638;2022-12-08T11:34:04;3.80;99.90
19610;DHT22;9952;47.122;-1.638;2022-12-08T11:38:47;3.80;99.90
19610;DHT22;9952;47.122;-1.638;2022-12-08T11:43:54;3.90;99.90
19610;DHT22;9952;47.122;-1.638;2022-12-08T11:48:49;3.90;99.90
19610;DHT22;9952;47.122;-1.638;2022-12-08T11:54:11;4.00;99.90
19610;DHT22;9952;47.122;-1.638;2022-12-08T11:58:57;4.00;99.90
19610;DHT22;9952;47.122;-1.638;2022-12-08T12:03:42;4.00;99.90
19610;DHT22;9952;47.122;-1.638;2022-12-08T12:19:04;4.40;99.90
19610;DHT22;9952;47.122;-1.638;2022-12-08T12:24:04;4.50;99.90
19610;DHT22;9952;47.122;-1.638;2022-12-08T12:28:54;4.40;99.90
19610;DHT22;9952;47.122;-1.638;2022-12-08T12:33:37;4.50;99.90
19610;DHT22;9952;47.122;-1.638;2022-12-08T12:43:33;4.30;99.90
19610;DHT22;9952;47.122;-1.638;2022-12-08T12:48:23;4.30;99.90
19610;DHT22;9952;47.122;-1.638;2022-12-08T13:03:02;4.50;99.90
19610;DHT22;9952;47.122;-1.638;2022-12-08T13:08:05;4.50;99.90
19610;DHT22;9952;47.122;-1.638;2022-12-08T13:17:52;4.50;99.90
19610;DHT22;9952;47.122;-1.638;2022-12-08T13:27:33;4.30;99.90
19610;DHT22;9952;47.122;-1.638;2022-12-08T13:32:56;4.20;99.90
19610;DHT22;9952;47.122;-1.638;2022-12-08T13:37:47;4.10;99.90
19610;DHT22;9952;47.122;-1.638;2022-12-08T13:42:40;4.00;99.90
19610;DHT22;9952;47.122;-1.638;2022-12-08T13:47:29;4.10;99.90
19610;DHT22;9952;47.122;-1.638;2022-12-08T13:52:29;4.10;99.90
19610;DHT22;9952;47.122;-1.638;2022-12-08T13:57:25;4.10;99.90
19610;DHT22;9952;47.122;-1.638;2022-12-08T14:02:16;4.00;99.90
19610;DHT22;9952;47.122;-1.638;2022-12-08T14:07:00;4.00;99.90
19610;DHT22;9952;47.122;-1.638;2022-12-08T14:11:45;4.10;99.90
19610;DHT22;9952;47.122;-1.638;2022-12-08T14:16:32;4.10;99.90
19610;DHT22;9952;47.122;-1.638;2022-12-08T14:21:13;4.00;99.90
19610;DHT22;9952;47.122;-1.638;2022-12-08T14:25:54;3.80;99.90
19610;DHT22;9952;47.122;-1.638;2022-12-08T14:30:37;3.80;99.90
19610;DHT22;9952;47.122;-1.638;2022-12-08T14:35:28;3.80;99.90
19610;DHT22;9952;47.122;-1.638;2022-12-08T14:44:59;3.70;99.90
19610;DHT22;9952;47.122;-1.638;2022-12-08T14:49:41;3.70;99.90
19610;DHT22;9952;47.122;-1.638;2022-12-08T14:54:23;3.70;99.90
19610;DHT22;9952;47.122;-1.638;2022-12-08T14:59:06;3.60;99.90
19610;DHT22;9952;47.122;-1.638;2022-12-08T15:03:51;3.70;99.90
19610;DHT22;9952;47.122;-1.638;2022-12-08T15:08:49;3.50;99.90
19610;DHT22;9952;47.122;-1.638;2022-12-08T15:13:30;3.60;99.90
19610;DHT22;9952;47.122;-1.638;2022-12-08T15:22:59;3.40;99.90
19610;DHT22;9952;47.122;-1.638;2022-12-08T15:27:40;3.30;99.90
19610;DHT22;9952;47.122;-1.638;2022-12-08T15:32:22;3.20;99.90
19610;DHT22;9952;47.122;-1.638;2022-12-08T15:37:03;3.10;99.90
19610;DHT22;9952;47.122;-1.638;2022-12-08T15:41:44;3.10;99.90
19610;DHT22;9952;47.122;-1.638;2022-12-08T15:46:25;3.10;99.90
19610;DHT22;9952;47.122;-1.638;2022-12-08T15:51:07;3.00;99.90
19610;DHT22;9952;47.122;-1.638;2022-12-08T15:55:48;3.00;99.90
19610;DHT22;9952;47.122;-1.638;2022-12-08T16:00:32;2.90;99.90
19610;DHT22;9952;47.122;-1.638;2022-12-08T16:05:13;3.00;99.90
19610;DHT22;9952;47.122;-1.638;2022-12-08T16:09:54;2.90;99.90
19610;DHT22;9952;47.122;-1.638;2022-12-08T16:14:36;3.00;99.90
19610;DHT22;9952;47.122;-1.638;2022-12-08T16:19:18;3.00;99.90
19610;DHT22;9952;47.122;-1.638;2022-12-08T16:23:59;3.00;99.90
19610;DHT22;9952;47.122;-1.638;2022-12-08T16:28:40;3.00;99.90
19610;DHT22;9952;47.122;-1.638;2022-12-08T16:33:21;3.20;99.90
19610;DHT22;9952;47.122;-1.638;2022-12-08T16:38:02;3.40;99.90
19610;DHT22;9952;47.122;-1.638;2022-12-08T16:42:43;3.50;99.90
19610;DHT22;9952;47.122;-1.638;2022-12-08T16:47:25;3.50;99.90
19610;DHT22;9952;47.122;-1.638;2022-12-08T16:52:06;3.60;99.90
19610;DHT22;9952;47.122;-1.638;2022-12-08T16:56:47;3.50;99.90
19610;DHT22;9952;47.122;-1.638;2022-12-08T17:01:27;3.60;99.90
19610;DHT22;9952;47.122;-1.638;2022-12-08T17:06:15;3.50;99.90
19610;DHT22;9952;47.122;-1.638;2022-12-08T17:10:56;3.40;99.90
19610;DHT22;9952;47.122;-1.638;2022-12-08T17:15:46;3.30;99.90
19610;DHT22;9952;47.122;-1.638;2022-12-08T17:20:28;3.40;99.90
19610;DHT22;9952;47.122;-1.638;2022-12-08T17:25:09;3.30;99.90
19610;DHT22;9952;47.122;-1.638;2022-12-08T17:29:50;3.30;99.90
19610;DHT22;9952;47.122;-1.638;2022-12-08T17:34:31;3.30;99.90
19610;DHT22;9952;47.122;-1.638;2022-12-08T17:39:12;3.30;99.90
19610;DHT22;9952;47.122;-1.638;2022-12-08T17:43:53;3.40;99.90
19610;DHT22;9952;47.122;-1.638;2022-12-08T17:48:34;3.30;99.90
19610;DHT22;9952;47.122;-1.638;2022-12-08T17:53:15;3.30;99.90
19610;DHT22;9952;47.122;-1.638;2022-12-08T17:57:56;3.20;99.90
19610;DHT22;9952;47.122;-1.638;2022-12-08T18:02:37;3.20;99.90
19610;DHT22;9952;47.122;-1.638;2022-12-08T18:07:17;3.20;99.90
19610;DHT22;9952;47.122;-1.638;2022-12-08T18:11:58;3.20;99.90
19610;DHT22;9952;47.122;-1.638;2022-12-08T18:16:42;3.20;99.90
19610;DHT22;9952;47.122;-1.638;2022-12-08T18:21:23;3.20;99.90
19610;DHT22;9952;47.122;-1.638;2022-12-08T18:26:05;3.20;99.90
19610;DHT22;9952;47.122;-1.638;2022-12-08T18:30:46;3.10;99.90
19610;DHT22;9952;47.122;-1.638;2022-12-08T18:35:27;3.10;99.90
19610;DHT22;9952;47.122;-1.638;2022-12-08T18:40:09;3.20;99.90
19610;DHT22;9952;47.122;-1.638;2022-12-08T18:44:58;3.20;99.90
19610;DHT22;9952;47.122;-1.638;2022-12-08T18:49:43;3.20;99.90
19610;DHT22;9952;47.122;-1.638;2022-12-08T18:54:24;3.20;99.90
19610;DHT22;9952;47.122;-1.638;2022-12-08T18:59:07;3.20;99.90
19610;DHT22;9952;47.122;-1.638;2022-12-08T19:03:50;3.20;99.90
19610;DHT22;9952;47.122;-1.638;2022-12-08T19:08:31;3.20;99.90
19610;DHT22;9952;47.122;-1.638;2022-12-08T19:13:12;3.20;99.90
19610;DHT22;9952;47.122;-1.638;2022-12-08T19:17:53;3.20;99.90
19610;DHT22;9952;47.122;-1.638;2022-12-08T19:22:33;3.20;99.90
19610;DHT22;9952;47.122;-1.638;2022-12-08T19:27:14;3.30;99.90
19610;DHT22;9952;47.122;-1.638;2022-12-08T19:31:55;3.30;99.90
19610;DHT22;9952;47.122;-1.638;2022-12-08T19:36:37;3.20;99.90
19610;DHT22;9952;47.122;-1.638;2022-12-08T19:41:22;3.20;99.90
19610;DHT22;9952;47.122;-1.638;2022-12-08T19:46:21;3.30;99.90
19610;DHT22;9952;47.122;-1.638;2022-12-08T19:51:03;3.20;99.90
19610;DHT22;9952;47.122;-1.638;2022-12-08T19:55:44;3.10;99.90
19610;DHT22;9952;47.122;-1.638;2022-12-08T20:00:25;3.10;99.90
19610;DHT22;9952;47.122;-1.638;2022-12-08T20:05:06;3.20;99.90
19610;DHT22;9952;47.122;-1.638;2022-12-08T20:09:47;3.20;99.90
19610;DHT22;9952;47.122;-1.638;2022-12-08T20:14:28;3.20;99.90
19610;DHT22;9952;47.122;-1.638;2022-12-08T20:19:09;3.20;99.90
19610;DHT22;9952;47.122;-1.638;2022-12-08T20:23:50;3.10;99.90
19610;DHT22;9952;47.122;-1.638;2022-12-08T20:28:33;3.30;99.90
19610;DHT22;9952;47.122;-1.638;2022-12-08T20:33:16;3.30;99.90
19610;DHT22;9952;47.122;-1.638;2022-12-08T20:37:57;3.20;99.90
19610;DHT22;9952;47.122;-1.638;2022-12-08T20:42:38;3.20;99.90
19610;DHT22;9952;47.122;-1.638;2022-12-08T20:47:19;3.20;99.90
19610;DHT22;9952;47.122;-1.638;2022-12-08T20:51:59;3.20;99.90
19610;DHT22;9952;47.122;-1.638;2022-12-08T20:56:40;3.20;99.90
19610;DHT22;9952;47.122;-1.638;2022-12-08T21:01:23;3.20;99.90
19610;DHT22;9952;47.122;-1.638;2022-12-08T21:06:04;3.30;99.90
19610;DHT22;9952;47.122;-1.638;2022-12-08T21:10:52;3.30;99.90
19610;DHT22;9952;47.122;-1.638;2022-12-08T21:15:33;3.20;99.90
19610;DHT22;9952;47.122;-1.638;2022-12-08T21:20:14;3.20;99.90
19610;DHT22;9952;47.122;-1.638;2022-12-08T21:24:55;3.10;99.90
19610;DHT22;9952;47.122;-1.638;2022-12-08T21:29:35;3.10;99.90
19610;DHT22;9952;47.122;-1.638;2022-12-08T21:34:16;3.20;99.90
19610;DHT22;9952;47.122;-1.638;2022-12-08T21:38:57;3.20;99.90
19610;DHT22;9952;47.122;-1.638;2022-12-08T21:43:41;3.10;99.90
19610;DHT22;9952;47.122;-1.638;2022-12-08T21:48:22;3.10;99.90
19610;DHT22;9952;47.122;-1.638;2022-12-08T21:53:03;3.10;99.90
19610;DHT22;9952;47.122;-1.638;2022-12-08T21:57:44;3.10;99.90
19610;DHT22;9952;47.122;-1.638;2022-12-08T22:02:25;3.20;99.90
19610;DHT22;9952;47.122;-1.638;2022-12-08T22:07:07;3.30;99.90
19610;DHT22;9952;47.122;-1.638;2022-12-08T22:11:48;3.20;99.90
19610;DHT22;9952;47.122;-1.638;2022-12-08T22:16:28;3.20;99.90
19610;DHT22;9952;47.122;-1.638;2022-12-08T22:21:14;3.20;99.90
19610;DHT22;9952;47.122;-1.638;2022-12-08T22:25:59;3.30;99.90
19610;DHT22;9952;47.122;-1.638;2022-12-08T22:30:40;3.30;99.90
19610;DHT22;9952;47.122;-1.638;2022-12-08T22:35:21;3.40;99.90
19610;DHT22;9952;47.122;-1.638;2022-12-08T22:40:03;3.20;99.90
19610;DHT22;9952;47.122;-1.638;2022-12-08T22:44:43;3.20;99.90
19610;DHT22;9952;47.122;-1.638;2022-12-08T22:49:24;3.30;99.90
19610;DHT22;9952;47.122;-1.638;2022-12-08T22:54:05;3.20;99.90
19610;DHT22;9952;47.122;-1.638;2022-12-08T22:58:46;3.20;99.90
19610;DHT22;9952;47.122;-1.638;2022-12-08T23:03:27;3.20;99.90
19610;DHT22;9952;47.122;-1.638;2022-12-08T23:08:12;3.20;99.90
19610;DHT22;9952;47.122;-1.638;2022-12-08T23:12:53;3.10;99.90
19610;DHT22;9952;47.122;-1.638;2022-12-08T23:17:34;3.10;99.90
19610;DHT22;9952;47.122;-1.638;2022-12-08T23:22:15;3.10;99.90
19610;DHT22;9952;47.122;-1.638;2022-12-08T23:26:55;3.10;99.90
19610;DHT22;9952;47.122;-1.638;2022-12-08T23:31:37;3.10;99.90
19610;DHT22;9952;47.122;-1.638;2022-12-08T23:36:19;3.10;99.90
19610;DHT22;9952;47.122;-1.638;2022-12-08T23:41:01;3.00;99.90
19610;DHT22;9952;47.122;-1.638;2022-12-08T23:45:42;2.90;99.90
19610;DHT22;9952;47.122;-1.638;2022-12-08T23:50:23;2.90;99.90
19610;DHT22;9952;47.122;-1.638;2022-12-08T23:55:04;2.80;99.90
19610;DHT22;9952;47.122;-1.638;2022-12-08T23:59:45;2.70;99.90
